createdAt,value
2022-12-29T00:01:18.706Z,14.02
2022-12-29T00:04:21.155Z,14.15
2022-12-29T00:07:23.413Z,13.62
2022-12-29T00:10:26.185Z,12.25
2022-12-29T00:13:47.167Z,14.32
2022-12-29T00:16:49.657Z,12.68
2022-12-29T00:20:10.678Z,12.48
2022-12-29T00:23:31.589Z,12.80
2022-12-29T00:26:53.291Z,12.43
2022-12-29T00:30:14.681Z,12.63
2022-12-29T00:33:39.845Z,11.88
2022-12-29T00:36:43.432Z,12.55
2022-12-29T00:40:04.488Z,12.52
2022-12-29T00:43:25.747Z,11.25
2022-12-29T00:46:28.023Z,12.27
2022-12-29T00:49:31.969Z,12.23
2022-12-29T00:52:34.151Z,12.95
2022-12-29T00:55:39.833Z,13.43
2022-12-29T00:58:42.099Z,13.62
2022-12-29T01:01:45.772Z,12.88
2022-12-29T01:04:48.056Z,12.13
2022-12-29T01:07:51.730Z,12.48
2022-12-29T01:11:08.178Z,11.15
2022-12-29T01:14:10.714Z,12.90
2022-12-29T01:17:13.175Z,12.60
2022-12-29T01:20:16.628Z,12.45
2022-12-29T01:23:19.083Z,10.50
2022-12-29T01:26:21.860Z,13.10
2022-12-29T01:29:24.169Z,11.73
2022-12-29T01:32:26.698Z,11.82
2022-12-29T01:35:29.298Z,11.55
2022-12-29T01:38:35.721Z,10.70
2022-12-29T01:41:37.976Z,11.20
2022-12-29T01:45:01.158Z,12.60
2022-12-29T01:48:09.451Z,12.03
2022-12-29T01:51:12.121Z,12.77
2022-12-29T01:54:23.667Z,13.23
2022-12-29T01:57:30.937Z,12.88
2022-12-29T02:00:33.325Z,11.90
2022-12-29T02:03:37.620Z,11.45
2022-12-29T02:06:51.572Z,13.00
2022-12-29T02:09:56.129Z,12.20
2022-12-29T02:16:27.510Z,10.43
2022-12-29T02:19:48.508Z,13.48
2022-12-29T02:23:18.717Z,11.30
2022-12-29T02:26:50.704Z,12.88
2022-12-29T02:30:35.331Z,10.88
2022-12-29T02:34:14.736Z,12.50
2022-12-29T02:37:49.565Z,11.77
2022-12-29T02:40:54.771Z,11.68
2022-12-29T02:44:15.015Z,12.05
2022-12-29T02:47:30.488Z,12.20
2022-12-29T02:51:25.493Z,10.93
2022-12-29T02:54:44.073Z,11.75
2022-12-29T02:57:46.652Z,11.27
2022-12-29T03:01:14.799Z,11.75
2022-12-29T03:04:28.077Z,11.25
2022-12-29T03:07:35.282Z,11.15
2022-12-29T03:11:03.246Z,11.32
2022-12-29T03:14:43.204Z,11.07
2022-12-29T03:18:11.797Z,10.32
2022-12-29T03:21:47.186Z,13.18
2022-12-29T03:24:54.020Z,10.25
2022-12-29T03:28:01.399Z,11.85
2022-12-29T03:31:06.025Z,10.68
2022-12-29T03:34:10.556Z,10.45
2022-12-29T03:37:17.998Z,10.38
2022-12-29T03:40:23.981Z,10.63
2022-12-29T03:43:27.928Z,10.43
2022-12-29T03:49:33.499Z,10.25
2022-12-29T03:52:38.929Z,10.00
2022-12-29T03:55:42.328Z,11.05
2022-12-29T03:58:45.528Z,10.52
2022-12-29T04:01:49.542Z,11.88
2022-12-29T04:04:52.291Z,10.77
2022-12-29T04:07:54.732Z,13.27
2022-12-29T04:10:57.243Z,11.35
2022-12-29T04:13:59.688Z,11.68
2022-12-29T04:17:02.525Z,11.23
2022-12-29T04:20:24.641Z,11.57
2022-12-29T04:23:28.708Z,11.40
2022-12-29T04:29:33.825Z,11.00
2022-12-29T04:32:36.588Z,10.67
2022-12-29T04:35:39.255Z,11.30
2022-12-29T04:38:41.477Z,12.35
2022-12-29T04:41:44.727Z,11.88
2022-12-29T04:44:48.061Z,13.30
2022-12-29T04:47:50.735Z,13.32
2022-12-29T04:50:56.052Z,12.15
2022-12-29T04:53:58.689Z,11.88
2022-12-29T04:57:03.119Z,12.25
2022-12-29T05:00:06.667Z,10.88
2022-12-29T05:03:11.967Z,12.70
2022-12-29T05:09:17.936Z,13.38
2022-12-29T05:12:21.115Z,13.60
2022-12-29T05:15:23.704Z,13.23
2022-12-29T05:18:26.288Z,13.53
2022-12-29T05:21:29.595Z,12.07
2022-12-29T05:24:32.875Z,13.38
2022-12-29T05:27:36.266Z,14.38
2022-12-29T05:33:42.447Z,12.82
2022-12-29T05:36:45.024Z,13.35
2022-12-29T05:39:47.360Z,15.32
2022-12-29T05:42:50.012Z,14.67
2022-12-29T05:45:54.953Z,14.35
2022-12-29T05:48:58.822Z,14.45
2022-12-29T05:52:01.011Z,15.43
2022-12-29T05:55:04.452Z,13.32
2022-12-29T05:58:07.274Z,15.20
2022-12-29T06:01:10.007Z,13.00
2022-12-29T06:04:13.364Z,13.88
2022-12-29T06:07:15.575Z,13.70
2022-12-29T06:10:18.440Z,13.33
2022-12-29T06:13:21.164Z,16.92
2022-12-29T06:16:24.382Z,14.30
2022-12-29T06:19:27.247Z,14.95
2022-12-29T06:22:29.785Z,13.07
2022-12-29T06:25:33.367Z,14.15
2022-12-29T06:28:35.849Z,14.50
2022-12-29T06:31:38.422Z,15.43
2022-12-29T06:34:40.991Z,14.30
2022-12-29T06:37:44.201Z,14.55
2022-12-29T06:40:46.745Z,13.80
2022-12-29T06:43:51.498Z,13.50
2022-12-29T06:46:55.099Z,16.08
2022-12-29T06:49:57.300Z,16.55
2022-12-29T06:52:59.776Z,16.95
2022-12-29T06:56:02.004Z,15.07
2022-12-29T06:59:04.908Z,14.98
2022-12-29T07:02:07.703Z,14.93
2022-12-29T07:05:11.141Z,15.18
2022-12-29T07:08:13.387Z,17.23
2022-12-29T07:11:16.744Z,15.60
2022-12-29T07:14:19.919Z,15.68
2022-12-29T07:17:22.396Z,14.60
2022-12-29T07:20:27.050Z,16.08
2022-12-29T07:23:30.095Z,15.13
2022-12-29T07:26:36.247Z,15.65
2022-12-29T07:29:39.389Z,15.48
2022-12-29T07:32:41.985Z,15.45
2022-12-29T07:35:44.485Z,14.30
2022-12-29T07:38:46.728Z,17.87
2022-12-29T07:41:49.217Z,16.02
2022-12-29T07:44:53.041Z,15.45
2022-12-29T07:47:56.703Z,15.30
2022-12-29T07:50:58.863Z,15.93
2022-12-29T07:54:01.765Z,15.55
2022-12-29T07:57:04.963Z,15.27
2022-12-29T08:00:08.119Z,14.70
2022-12-29T08:03:14.166Z,19.17
2022-12-29T08:06:16.689Z,14.37
2022-12-29T08:09:22.716Z,15.80
2022-12-29T08:12:26.966Z,15.23
2022-12-29T08:15:32.592Z,16.58
2022-12-29T08:18:35.517Z,15.48
2022-12-29T08:21:37.747Z,15.57
2022-12-29T08:24:40.265Z,15.02
2022-12-29T08:27:42.477Z,14.85
2022-12-29T08:30:45.080Z,16.15
2022-12-29T08:33:47.263Z,16.27
2022-12-29T08:36:49.796Z,16.60
2022-12-29T08:39:51.963Z,16.35
2022-12-29T08:42:54.411Z,17.50
2022-12-29T08:45:58.694Z,19.67
2022-12-29T08:49:01.192Z,15.80
2022-12-29T08:52:03.872Z,19.05
2022-12-29T08:55:06.720Z,16.92
2022-12-29T08:58:09.256Z,16.85
2022-12-29T09:01:12.051Z,17.37
2022-12-29T09:04:16.466Z,17.08
2022-12-29T09:07:20.022Z,17.37
2022-12-29T09:10:22.216Z,18.40
2022-12-29T09:13:24.756Z,17.30
2022-12-29T09:16:28.006Z,17.67
2022-12-29T09:22:33.368Z,16.85
2022-12-29T09:25:35.842Z,18.45
2022-12-29T09:28:38.222Z,17.85
2022-12-29T09:31:40.778Z,16.13
2022-12-29T09:34:43.089Z,18.23
2022-12-29T09:37:45.596Z,17.65
2022-12-29T09:41:17.987Z,17.20
2022-12-29T09:44:49.116Z,17.65
2022-12-29T09:47:51.975Z,18.33
2022-12-29T09:51:00.046Z,17.75
2022-12-29T09:54:23.185Z,17.58
2022-12-29T09:57:30.528Z,17.77
2022-12-29T10:00:42.539Z,17.05
2022-12-29T10:03:57.852Z,17.25
2022-12-29T10:07:28.992Z,18.65
2022-12-29T10:10:41.795Z,19.10
2022-12-29T10:14:16.461Z,19.27
2022-12-29T10:17:31.807Z,19.25
2022-12-29T10:21:01.762Z,17.77
2022-12-29T10:24:08.175Z,18.55
2022-12-29T10:27:16.756Z,17.48
2022-12-29T10:30:19.711Z,18.80
2022-12-29T10:33:32.983Z,19.02
2022-12-29T10:36:48.366Z,18.00
2022-12-29T10:39:53.604Z,18.12
2022-12-29T10:42:58.499Z,20.33
2022-12-29T10:46:05.578Z,20.77
2022-12-29T10:49:21.539Z,19.37
2022-12-29T10:52:26.230Z,20.02
2022-12-29T10:55:39.088Z,19.30
2022-12-29T10:58:49.262Z,21.00
2022-12-29T11:02:13.604Z,21.58
2022-12-29T11:05:41.072Z,17.70
2022-12-29T11:08:54.840Z,18.90
2022-12-29T11:11:57.200Z,20.55
2022-12-29T11:15:08.791Z,20.48
2022-12-29T11:18:32.625Z,21.00
2022-12-29T11:24:46.893Z,19.90
2022-12-29T11:28:16.383Z,21.83
2022-12-29T11:31:22.832Z,19.33
2022-12-29T11:34:33.861Z,21.00
2022-12-29T11:37:40.662Z,20.35
2022-12-29T11:40:43.384Z,21.15
2022-12-29T11:43:46.322Z,21.12
2022-12-29T11:46:51.979Z,19.55
2022-12-29T11:49:58.901Z,20.27
2022-12-29T11:53:21.545Z,20.75
2022-12-29T11:56:38.424Z,22.87
2022-12-29T11:59:50.196Z,22.80
2022-12-29T12:02:59.711Z,21.37
2022-12-29T12:06:03.537Z,22.85
2022-12-29T12:09:15.605Z,24.48
2022-12-29T12:12:27.708Z,22.23
2022-12-29T12:15:56.810Z,23.75
2022-12-29T12:19:13.415Z,24.12
2022-12-29T12:22:32.736Z,22.77
2022-12-29T12:26:13.466Z,22.58
2022-12-29T12:29:25.504Z,21.83
2022-12-29T12:32:43.929Z,23.48
2022-12-29T12:36:19.967Z,21.90
2022-12-29T12:39:28.223Z,23.55
2022-12-29T12:42:36.501Z,21.92
2022-12-29T12:45:53.982Z,23.08
2022-12-29T12:49:05.116Z,21.77
2022-12-29T12:52:25.894Z,22.08
2022-12-29T12:55:44.151Z,22.65
2022-12-29T12:59:09.566Z,23.25
2022-12-29T13:02:27.569Z,23.90
2022-12-29T13:05:58.199Z,23.52
2022-12-29T13:09:16.341Z,23.20
2022-12-29T13:12:31.296Z,25.17
2022-12-29T13:15:42.645Z,22.70
2022-12-29T13:18:51.133Z,21.80
2022-12-29T13:22:06.978Z,20.48
2022-12-29T13:25:24.920Z,22.52
2022-12-29T13:28:31.558Z,21.77
2022-12-29T13:31:40.729Z,21.77
2022-12-29T13:35:05.031Z,22.23
2022-12-29T13:38:13.235Z,21.20
2022-12-29T13:41:22.778Z,21.08
2022-12-29T13:44:37.071Z,20.33
2022-12-29T13:48:07.648Z,20.95
2022-12-29T13:51:11.382Z,20.30
2022-12-29T13:55:03.284Z,18.27
2022-12-29T13:58:21.656Z,20.65
2022-12-29T14:01:37.004Z,20.17
2022-12-29T14:04:57.099Z,19.17
2022-12-29T14:08:02.407Z,20.92
2022-12-29T14:11:11.227Z,20.10
2022-12-29T14:14:28.837Z,20.42
2022-12-29T14:17:31.640Z,21.83
2022-12-29T14:20:35.078Z,19.87
2022-12-29T14:26:45.680Z,19.58
2022-12-29T14:29:52.692Z,18.42
2022-12-29T14:33:14.269Z,20.42
2022-12-29T14:36:27.860Z,18.02
2022-12-29T14:39:36.015Z,19.45
2022-12-29T14:42:41.221Z,19.08
2022-12-29T14:45:43.801Z,21.17
2022-12-29T14:48:46.501Z,19.45
2022-12-29T14:51:49.883Z,18.08
2022-12-29T14:58:02.500Z,17.27
2022-12-29T15:01:16.065Z,21.27
2022-12-29T15:04:23.931Z,19.75
2022-12-29T15:07:28.632Z,20.75
2022-12-29T15:10:40.591Z,20.67
2022-12-29T15:13:45.132Z,21.10
2022-12-29T15:16:47.337Z,20.00
2022-12-29T15:19:49.875Z,19.87
2022-12-29T15:22:58.521Z,23.42
2022-12-29T15:26:03.683Z,23.27
2022-12-29T15:29:06.196Z,22.37
2022-12-29T15:32:27.133Z,23.23
2022-12-29T15:35:37.836Z,21.02
2022-12-29T15:38:40.853Z,20.85
2022-12-29T15:42:04.926Z,23.58
2022-12-29T15:45:13.404Z,20.83
2022-12-29T15:48:24.990Z,22.48
2022-12-29T15:51:32.223Z,21.40
2022-12-29T15:54:34.863Z,21.85
2022-12-29T15:57:44.016Z,22.10
2022-12-29T16:00:55.745Z,22.50
2022-12-29T16:04:06.509Z,21.62
2022-12-29T16:07:26.982Z,21.17
2022-12-29T16:10:47.982Z,21.27
2022-12-29T16:13:53.354Z,24.30
2022-12-29T16:17:00.207Z,25.40
2022-12-29T16:20:24.835Z,26.50
2022-12-29T16:23:30.578Z,24.27
2022-12-29T16:26:32.949Z,24.25
2022-12-29T16:29:36.337Z,24.30
2022-12-29T16:32:47.661Z,24.30
2022-12-29T16:35:50.410Z,24.55
2022-12-29T16:39:18.957Z,21.83
2022-12-29T16:42:51.367Z,21.70
2022-12-29T16:45:54.595Z,23.62
2022-12-29T16:48:58.353Z,23.65
2022-12-29T16:52:01.043Z,23.70
2022-12-29T16:55:04.281Z,24.42
2022-12-29T16:58:06.538Z,25.30
2022-12-29T17:01:15.518Z,23.55
2022-12-29T17:04:17.723Z,22.60
2022-12-29T17:07:23.450Z,24.98
2022-12-29T17:10:45.601Z,23.42
2022-12-29T17:13:48.057Z,26.70
2022-12-29T17:16:50.562Z,25.70
2022-12-29T17:19:59.803Z,24.65
2022-12-29T17:23:02.674Z,24.17
2022-12-29T17:26:13.629Z,22.92
2022-12-29T17:29:38.241Z,24.30
2022-12-29T17:32:42.716Z,23.90
2022-12-29T17:35:47.435Z,26.25
2022-12-29T17:38:52.949Z,26.92
2022-12-29T17:41:55.191Z,26.75
2022-12-29T17:44:57.928Z,27.58
2022-12-29T17:48:01.789Z,26.48
2022-12-29T17:51:04.636Z,26.40
2022-12-29T17:54:07.003Z,25.83
2022-12-29T17:57:15.663Z,25.97
2022-12-29T18:00:20.219Z,24.50
2022-12-29T18:03:35.192Z,27.62
2022-12-29T18:06:37.633Z,25.58
2022-12-29T18:09:40.169Z,25.77
2022-12-29T18:12:44.791Z,26.62
2022-12-29T18:15:47.755Z,27.08
2022-12-29T18:18:49.965Z,23.63
2022-12-29T18:21:52.540Z,24.83
2022-12-29T18:24:55.142Z,25.58
2022-12-29T18:27:58.059Z,28.90
2022-12-29T18:31:01.819Z,26.42
2022-12-29T18:34:13.165Z,26.45
2022-12-29T18:37:15.379Z,25.35
2022-12-29T18:40:19.518Z,24.52
2022-12-29T18:43:22.518Z,25.98
2022-12-29T18:46:25.177Z,26.58
2022-12-29T18:49:27.450Z,23.65
2022-12-29T18:52:29.962Z,26.17
2022-12-29T18:55:32.828Z,24.25
2022-12-29T18:58:35.916Z,25.58
2022-12-29T19:01:38.491Z,27.10
2022-12-29T19:04:41.069Z,25.52
2022-12-29T19:07:43.250Z,25.80
2022-12-29T19:10:46.042Z,23.67
2022-12-29T19:13:48.243Z,24.23
2022-12-29T19:16:50.681Z,25.33
2022-12-29T19:19:52.854Z,25.73
2022-12-29T19:22:57.005Z,23.77
2022-12-29T19:25:59.228Z,24.87
2022-12-29T19:29:02.535Z,23.52
2022-12-29T19:32:04.972Z,23.70
2022-12-29T19:35:09.748Z,25.40
2022-12-29T19:38:13.013Z,24.33
2022-12-29T19:44:17.733Z,23.48
2022-12-29T19:47:21.047Z,24.42
2022-12-29T19:50:23.701Z,26.95
2022-12-29T19:53:26.316Z,24.30
2022-12-29T19:56:28.558Z,23.45
2022-12-29T19:59:31.062Z,21.27
2022-12-29T20:02:34.281Z,22.30
2022-12-29T20:08:39.982Z,21.02
2022-12-29T20:11:42.463Z,25.92
2022-12-29T20:14:45.715Z,22.13
2022-12-29T20:21:19.422Z,23.48
2022-12-29T20:24:21.937Z,24.05
2022-12-29T20:27:24.131Z,24.02
2022-12-29T20:30:26.908Z,23.23
2022-12-29T20:33:31.675Z,22.15
2022-12-29T20:36:35.230Z,24.15
2022-12-29T20:39:37.673Z,21.75
2022-12-29T20:42:40.115Z,23.03
2022-12-29T20:45:42.538Z,23.60
2022-12-29T20:48:45.168Z,23.37
2022-12-29T20:52:05.735Z,24.73
2022-12-29T20:55:09.061Z,23.10
2022-12-29T20:58:23.571Z,23.23
2022-12-29T21:01:27.158Z,21.58
2022-12-29T21:04:43.797Z,23.30
2022-12-29T21:07:52.651Z,24.75
2022-12-29T21:10:54.839Z,21.58
2022-12-29T21:14:01.025Z,20.17
2022-12-29T21:17:03.691Z,22.30
2022-12-29T21:20:06.833Z,22.90
2022-12-29T21:23:09.808Z,19.73
2022-12-29T21:26:16.355Z,21.52
2022-12-29T21:29:18.508Z,21.73
2022-12-29T21:32:21.016Z,22.40
2022-12-29T21:35:23.471Z,22.25
2022-12-29T21:38:29.122Z,21.67
2022-12-29T21:41:32.298Z,23.12
2022-12-29T21:44:53.736Z,23.87
2022-12-29T21:48:18.558Z,22.17
2022-12-29T21:51:39.271Z,21.75
2022-12-29T21:55:00.083Z,23.33
2022-12-29T21:58:21.023Z,24.00
2022-12-29T22:01:43.155Z,24.73
2022-12-29T22:05:04.698Z,23.02
2022-12-29T22:08:25.751Z,21.75
2022-12-29T22:11:46.411Z,21.37
2022-12-29T22:14:48.547Z,21.92
2022-12-29T22:17:53.305Z,20.85
2022-12-29T22:20:55.432Z,22.13
2022-12-29T22:23:57.905Z,22.73
2022-12-29T22:27:01.017Z,23.60
2022-12-29T22:30:05.118Z,27.17
2022-12-29T22:33:07.414Z,23.70
2022-12-29T22:36:09.889Z,22.57
2022-12-29T22:39:12.062Z,23.90
2022-12-29T22:42:14.539Z,24.10
2022-12-29T22:45:16.816Z,22.17
2022-12-29T22:48:19.305Z,22.87
2022-12-29T22:51:21.450Z,22.20
2022-12-29T22:54:24.043Z,23.02
2022-12-29T22:57:26.252Z,21.05
2022-12-29T23:00:28.764Z,20.62
2022-12-29T23:03:31.125Z,21.15
2022-12-29T23:06:33.924Z,21.47
2022-12-29T23:09:36.448Z,22.20
2022-12-29T23:12:39.084Z,21.45
2022-12-29T23:15:41.441Z,20.42
2022-12-29T23:18:45.791Z,20.62
2022-12-29T23:21:48.005Z,23.15
2022-12-29T23:24:50.823Z,19.98
2022-12-29T23:27:53.059Z,21.60
2022-12-29T23:30:55.670Z,21.67
2022-12-29T23:33:59.866Z,19.62
2022-12-29T23:37:02.400Z,23.30
2022-12-29T23:40:05.045Z,22.83
2022-12-29T23:43:07.613Z,21.23
2022-12-29T23:46:12.695Z,26.52
2022-12-29T23:49:15.273Z,24.55
2022-12-29T23:52:17.857Z,21.98
2022-12-29T23:55:20.821Z,23.92
2022-12-29T23:58:23.245Z,23.63
